Spicewood's Hourly Summary for Thursday, July 5, 2018
Hour Temp
(f)
RH
(%)
Solar Rad.
(MJ/m2)
Rainfall
(in)
Wind
(mph)
7/5/2018 12:00 AM 72 100 0 0 3.25
7/5/2018 1:00 AM 71 99 0 0 3.86
7/5/2018 2:00 AM 70 98 0 0 2.82
7/5/2018 3:00 AM 70 98 0 0 2.05
7/5/2018 4:00 AM 70 97 0 0 1.66
7/5/2018 5:00 AM 70 96 0 0 2.12
7/5/2018 6:00 AM 71 96 0 0 2.2
7/5/2018 7:00 AM 72 96 0.01 0 2.2
7/5/2018 8:00 AM 73 95 0.1 0 2.3
7/5/2018 9:00 AM 76 90 0.36 0 2.03
7/5/2018 10:00 AM 80 82 1.12 0 2.22
7/5/2018 11:00 AM 82 71 2.29 0 3.88
7/5/2018 12:00 PM 84 67 1.73 0 3.42
7/5/2018 1:00 PM 86 62 2.53 0 4.23
7/5/2018 2:00 PM 86 54 1.88 0 3.83
7/5/2018 3:00 PM 89 51 1.39 0 3.19
7/5/2018 4:00 PM 91 42 2.69 0 3.39
7/5/2018 5:00 PM 91 39 2.27 0 3.81
7/5/2018 6:00 PM 91 40 1.84 0 3.5
7/5/2018 7:00 PM 91 43 1.14 0 3.29
7/5/2018 8:00 PM 90 47 0.51 0 2.28
7/5/2018 9:00 PM 87 57 0.06 0 0.95
7/5/2018 10:00 PM 83 63 0 0 0.79
7/5/2018 11:00 PM 80 80 0 0 0.53
Data Summary 80 73 19.92 0.00 2.66